KFEW/FEW METAR and TAF weather

Enter ICAO airport designator
Station Type Date Time Source
KFEW METAR 2019/02/21 15:58 UTC NOAA

KFEW 211558Z AUTO 00000KT 1 3/4SM -SN OVC020 M10/M13 A2979 RMK AO2 SNB20 SLP167 T10991131 $


Station Type Date Time Source
KFEW Decoded METAR 2019/02/21 15:58 UTC NOAA

Station name not available
Feb 21, 2019 - 10:58 AM EST / 2019.02.21 1558 UTC
Wind: Calm:0
Visibility: 1 3/4 mile(s):0
Sky conditions: overcast
Weather: light snow
Temperature: 14.2 F (-9.9 C)
Dew Point: 8.4 F (-13.1 C)
Relative Humidity: 77%
Pressure (altimeter): 29.79 in. Hg (1008 hPa)
ob: KFEW 211558Z AUTO 00000KT 1 3/4SM -SN OVC020 M10/M13 A2979 RMK AO2 SNB20 SLP167 T10991131
cycle: 16

Station Type Date Time Source
KFEW TAF UTC NOAA

Error!


Example: see airport list